Time;durP1;ratioP1;P1;durP2;ratioP2;P2;SDS_P1;SDS_P2;PMS_P1;PMS_P2;Temp;Humidity;BMP_temperature;BMP_pressure;BME280_temperature;BME280_humidity;BME280_pressure;Samples;Min_cycle;Max_cycle;Signal;HPM_P1;HPM_P2
2023/09/16 00:00:21;;;;;;;7.85;3.27;;;;;;;24.57;51.19;101312.42;2323403;75;50216;-78
2023/09/16 00:03:23;;;;;;;6.10;3.45;;;;;;;24.53;51.28;101316.91;2297312;75;51132;-78
2023/09/16 00:06:25;;;;;;;9.10;3.90;;;;;;;24.56;51.22;101318.36;2323053;75;51368;-78
2023/09/16 00:09:28;;;;;;;9.53;3.40;;;;;;;24.52;51.33;101320.63;2231808;78;50212;-78
2023/09/16 00:12:30;;;;;;;8.95;3.60;;;;;;;24.54;51.21;101317.73;2297468;75;50292;-78
2023/09/16 00:15:32;;;;;;;11.10;3.77;;;;;;;24.53;51.21;101318.75;2272039;78;50531;-77
2023/09/16 00:18:34;;;;;;;9.85;3.62;;;;;;;24.55;51.08;101316.16;2324128;75;50861;-76
2023/09/16 00:21:36;;;;;;;8.43;3.90;;;;;;;24.57;51.06;101317.84;2298180;75;51542;-76
2023/09/16 00:24:40;;;;;;;8.35;3.35;;;;;;;24.57;51.07;101309.19;2325893;75;51435;-76
2023/09/16 00:27:42;;;;;;;6.90;3.67;;;;;;;24.58;51.07;101312.73;2322838;76;52585;-78
2023/09/16 00:30:48;;;;;;;8.93;3.15;;;;;;;24.56;51.10;101315.66;2311783;76;51314;-76
2023/09/16 00:33:50;;;;;;;9.05;3.42;;;;;;;24.56;51.06;101310.25;2310894;76;50489;-77
2023/09/16 00:36:53;;;;;;;8.68;3.05;;;;;;;24.52;51.20;101307.10;2311840;76;50196;-76
2023/09/16 00:39:55;;;;;;;6.92;3.08;;;;;;;24.52;51.11;101311.69;2284943;76;51518;-76
2023/09/16 00:42:57;;;;;;;10.78;3.50;;;;;;;24.55;51.07;101311.27;2311479;76;52379;-76
2023/09/16 00:45:59;;;;;;;8.70;3.25;;;;;;;24.55;51.09;101303.15;2311797;76;51568;-76
2023/09/16 00:49:02;;;;;;;7.80;3.33;;;;;;;24.55;51.07;101303.97;2333899;76;50200;-75
2023/09/16 00:52:04;;;;;;;5.72;2.83;;;;;;;24.55;51.10;101302.63;2311545;76;51210;-75
2023/09/16 00:55:08;;;;;;;5.28;2.90;;;;;;;24.53;51.17;101302.52;2261134;76;50625;-76
2023/09/16 00:58:11;;;;;;;8.80;3.02;;;;;;;24.53;51.17;101303.38;2294412;77;50247;-76
2023/09/16 01:01:13;;;;;;;6.40;2.98;;;;;;;24.55;51.11;101297.22;2294447;77;51520;-79
2023/09/16 01:04:16;;;;;;;7.15;3.20;;;;;;;24.55;51.11;101293.16;2261036;77;51379;-79
2023/09/16 01:07:18;;;;;;;9.40;3.17;;;;;;;24.58;50.98;101291.91;2261100;77;51131;-76
2023/09/16 01:10:22;;;;;;;4.97;3.15;;;;;;;24.59;50.98;101294.95;2294315;77;49868;-76
2023/09/16 01:13:24;;;;;;;5.45;3.10;;;;;;;24.59;50.93;101286.83;2256400;77;50312;-77
2023/09/16 01:16:39;;;;;;;8.43;3.62;;;;;;;24.58;50.90;101283.79;2236813;77;51114;-78
2023/09/16 01:20:06;;;;;;;8.43;3.53;;;;;;;24.58;50.89;101284.31;2294810;77;51458;-76
2023/09/16 01:23:08;;;;;;;5.75;3.58;;;;;;;24.59;50.87;101284.65;2294287;76;50599;-76
2023/09/16 01:26:11;;;;;;;5.60;3.12;;;;;;;24.57;50.87;101278.61;2310625;76;51405;-76
2023/09/16 01:29:13;;;;;;;5.03;3.10;;;;;;;24.57;50.87;101278.61;2324336;76;50172;-78
2023/09/16 01:32:16;;;;;;;10.53;3.22;;;;;;;24.57;50.83;101276.73;2291367;76;50115;-79
2023/09/16 01:35:20;;;;;;;3.95;2.90;;;;;;;24.55;50.92;101272.86;2322078;76;51427;-77
2023/09/16 01:38:23;;;;;;;5.15;2.75;;;;;;;24.57;50.89;101275.90;2322166;76;50273;-78
2023/09/16 01:41:25;;;;;;;7.85;3.08;;;;;;;24.55;50.85;101268.80;2291689;76;50628;-77
2023/09/16 01:44:27;;;;;;;6.05;2.80;;;;;;;24.57;50.86;101269.13;2321940;76;51500;-77
2023/09/16 01:47:30;;;;;;;5.45;2.60;;;;;;;24.57;50.78;101265.08;2322155;76;51361;-76
2023/09/16 01:50:32;;;;;;;5.40;2.80;;;;;;;24.56;50.79;101264.25;2291586;76;51361;-77
2023/09/16 01:53:34;;;;;;;7.58;3.20;;;;;;;24.55;50.81;101263.92;2288342;76;51394;-77
2023/09/16 01:56:36;;;;;;;6.80;2.75;;;;;;;24.49;51.04;101266.11;2281580;76;52286;-77
2023/09/16 01:59:38;;;;;;;4.17;2.70;;;;;;;24.46;51.17;101266.01;2267958;76;50165;-76
2023/09/16 02:02:41;;;;;;;6.12;2.77;;;;;;;24.46;51.12;101262.48;2321987;76;50188;-77
2023/09/16 02:05:43;;;;;;;5.67;2.80;;;;;;;24.46;51.08;101248.42;2242020;76;50031;-76
2023/09/16 02:08:45;;;;;;;4.42;2.83;;;;;;;24.49;50.96;101254.77;2292911;76;51367;-77
2023/09/16 02:11:47;;;;;;;5.55;2.98;;;;;;;24.48;51.01;101261.72;2322184;76;50598;-76
2023/09/16 02:14:51;;;;;;;7.12;2.80;;;;;;;24.46;51.10;101260.59;2291322;76;50854;-77
2023/09/16 02:17:53;;;;;;;5.65;2.87;;;;;;;24.45;51.08;101246.73;2293541;76;50642;-77
2023/09/16 02:20:55;;;;;;;4.50;2.58;;;;;;;24.43;51.14;101247.95;2266412;76;51109;-77
2023/09/16 02:23:57;;;;;;;3.87;2.77;;;;;;;24.44;51.10;101245.05;2282028;76;50571;-77
2023/09/16 02:27:00;;;;;;;3.90;2.50;;;;;;;24.45;51.07;101253.50;2313439;76;51258;-76
2023/09/16 02:30:02;;;;;;;7.22;3.25;;;;;;;24.48;50.91;101243.64;2275902;77;49536;-77
2023/09/16 02:33:05;;;;;;;7.53;2.98;;;;;;;24.50;50.86;101245.59;2272925;77;50183;-76
2023/09/16 02:36:07;;;;;;;5.47;3.02;;;;;;;24.51;50.80;101245.10;2273282;77;51421;-76
2023/09/16 02:39:09;;;;;;;4.58;2.95;;;;;;;24.47;50.95;101247.37;2248354;77;50594;-77
2023/09/16 02:42:11;;;;;;;8.58;2.90;;;;;;;24.49;50.84;101243.95;2294412;77;50260;-76
2023/09/16 02:45:14;;;;;;;4.17;2.75;;;;;;;24.49;50.81;101241.77;2273050;77;51694;-76
2023/09/16 02:48:18;;;;;;;5.45;2.70;;;;;;;24.49;50.79;101246.65;2294499;77;51464;-76
2023/09/16 02:51:20;;;;;;;5.83;2.65;;;;;;;24.47;50.88;101236.55;2294427;77;50625;-76
2023/09/16 02:54:22;;;;;;;7.12;3.05;;;;;;;24.51;50.74;101231.58;2259784;76;51170;-76
2023/09/16 02:57:24;;;;;;;7.30;2.50;;;;;;;24.52;50.71;101231.34;2290853;76;50599;-77
2023/09/16 03:00:26;;;;;;;3.05;2.27;;;;;;;24.50;50.75;101231.24;2334012;76;51418;-76
2023/09/16 03:03:29;;;;;;;5.47;2.70;;;;;;;24.51;50.70;101229.70;2286127;76;51415;-76
2023/09/16 03:06:31;;;;;;;8.60;3.10;;;;;;;24.51;50.71;101225.64;2311646;76;50310;-76
2023/09/16 03:09:33;;;;;;;4.75;2.67;;;;;;;24.51;50.69;101227.52;2260518;76;51849;-76
2023/09/16 03:12:36;;;;;;;5.83;2.25;;;;;;;24.50;50.70;101223.13;2333447;76;51294;-76
2023/09/16 03:15:41;;;;;;;3.85;2.37;;;;;;;24.50;50.69;101223.95;2337943;75;51439;-76
2023/09/16 03:18:46;;;;;;;5.30;2.67;;;;;;;24.52;50.57;101221.88;2331888;76;50387;-76
2023/09/16 03:21:48;;;;;;;3.53;2.07;;;;;;;24.51;50.56;101221.58;2332921;76;51432;-76
2023/09/16 03:24:50;;;;;;;5.97;2.40;;;;;;;24.49;50.59;101215.54;2319962;76;51377;-76
2023/09/16 03:27:52;;;;;;;5.35;2.62;;;;;;;24.49;50.60;101217.42;2231923;77;51488;-76
2023/09/16 03:30:54;;;;;;;8.50;2.60;;;;;;;24.49;50.63;101215.54;2273168;77;50254;-76
2023/09/16 03:33:57;;;;;;;7.55;2.70;;;;;;;24.47;50.60;101209.50;2207790;77;51126;-76
2023/09/16 03:36:59;;;;;;;4.70;2.60;;;;;;;24.48;50.62;101211.67;2232199;77;50613;-75
2023/09/16 03:40:03;;;;;;;5.67;2.25;;;;;;;24.46;50.64;101209.20;2294175;77;51572;-76
2023/09/16 03:43:05;;;;;;;5.58;2.72;;;;;;;24.45;50.60;101210.22;2208849;77;51718;-76
2023/09/16 03:46:07;;;;;;;5.37;2.58;;;;;;;24.46;50.59;101208.38;2232124;77;51505;-76
2023/09/16 03:49:09;;;;;;;5.72;2.62;;;;;;;24.45;50.59;101198.05;2294627;77;51383;-77
2023/09/16 03:52:11;;;;;;;4.45;2.70;;;;;;;24.43;50.62;101192.50;2235720;76;51405;-76
2023/09/16 03:55:14;;;;;;;6.50;2.70;;;;;;;24.42;50.59;101194.38;2327746;76;50261;-76
2023/09/16 03:58:16;;;;;;;4.55;2.35;;;;;;;24.41;50.65;101185.14;2261468;77;52553;-76
2023/09/16 04:01:18;;;;;;;3.92;2.30;;;;;;;24.41;50.64;101189.20;2294691;77;50230;-76
2023/09/16 04:04:20;;;;;;;5.60;2.47;;;;;;;24.41;50.57;101183.27;2294341;77;50167;-77
2023/09/16 04:07:22;;;;;;;5.80;2.33;;;;;;;24.42;50.54;101178.68;2256289;77;50694;-77
2023/09/16 04:10:25;;;;;;;5.62;2.40;;;;;;;24.42;50.51;101179.50;2256498;77;50627;-76
2023/09/16 04:13:27;;;;;;;4.92;2.33;;;;;;;24.40;50.60;101182.11;2256436;77;50632;-76
2023/09/16 04:16:29;;;;;;;8.55;2.80;;;;;;;24.40;50.58;101182.94;2294631;77;50470;-77
2023/09/16 04:19:31;;;;;;;6.08;2.77;;;;;;;24.40;50.66;101174.81;2294529;77;51412;-77
2023/09/16 04:22:36;;;;;;;6.95;3.33;;;;;;;24.40;50.65;101184.28;2260801;77;51175;-77
2023/09/16 04:25:39;;;;;;;4.87;2.40;;;;;;;24.41;50.64;101190.02;2274194;77;50222;-77
2023/09/16 04:28:41;;;;;;;5.65;2.37;;;;;;;24.43;50.63;101191.15;2313770;76;50225;-76
2023/09/16 04:31:43;;;;;;;5.67;2.00;;;;;;;24.40;50.58;101186.98;2169090;79;51620;-75
2023/09/16 04:34:45;;;;;;;5.35;2.52;;;;;;;24.39;50.63;101187.22;2231048;79;49991;-77
2023/09/16 04:37:47;;;;;;;6.95;2.45;;;;;;;24.38;50.66;101186.39;2252299;78;50566;-76
2023/09/16 04:40:50;;;;;;;6.90;2.60;;;;;;;24.38;50.66;101186.89;2215322;79;51558;-76
2023/09/16 04:43:52;;;;;;;6.58;2.37;;;;;;;24.36;50.66;101187.11;2251652;79;51413;-76
2023/09/16 04:46:54;;;;;;;7.37;2.62;;;;;;;24.37;50.66;101188.77;2207061;79;52457;-77
2023/09/16 04:49:56;;;;;;;8.93;2.60;;;;;;;24.37;50.66;101183.88;2192113;79;50489;-77
2023/09/16 04:52:58;;;;;;;7.37;2.80;;;;;;;24.37;50.58;101185.23;2251713;78;51331;-77
2023/09/16 04:56:01;;;;;;;4.67;2.60;;;;;;;24.35;50.65;101185.43;2298149;76;51123;-76
2023/09/16 04:59:04;;;;;;;5.55;2.42;;;;;;;24.34;50.66;101190.54;2299606;76;50717;-78
2023/09/16 05:02:06;;;;;;;9.55;3.70;;;;;;;24.34;50.52;101191.89;2330505;76;50241;-77
2023/09/16 05:05:11;;;;;;;13.38;3.27;;;;;;;24.34;50.47;101201.36;2271367;76;50688;-77
2023/09/16 05:08:12;;;;;;;8.33;3.17;;;;;;;24.36;50.24;101197.11;2297287;76;22410;-78
2023/09/16 05:11:15;;;;;;;13.15;2.60;;;;;;;24.42;50.46;101193.03;2330561;76;50584;-76
2023/09/16 05:14:17;;;;;;;14.78;3.00;;;;;;;24.41;50.20;101195.44;2296355;76;50188;-76
2023/09/16 05:17:19;;;;;;;12.23;2.87;;;;;;;24.40;50.33;101196.98;2271089;76;50441;-76
2023/09/16 05:20:21;;;;;;;10.75;2.60;;;;;;;24.41;50.19;101198.14;2267221;76;51395;-77
2023/09/16 05:23:23;;;;;;;10.23;3.08;;;;;;;24.38;50.16;101191.80;2308391;76;51480;-76
2023/09/16 05:26:26;;;;;;;8.13;2.95;;;;;;;24.39;50.17;101202.92;2276182;76;51430;-76
2023/09/16 05:29:28;;;;;;;11.73;3.00;;;;;;;24.39;50.10;101197.52;2282229;76;50363;-76
2023/09/16 05:32:31;;;;;;;12.45;2.92;;;;;;;24.40;50.00;101200.52;2283760;76;50557;-76
2023/09/16 05:35:33;;;;;;;9.65;3.20;;;;;;;24.39;49.97;101197.52;2309104;76;49948;-78
2023/09/16 05:38:35;;;;;;;11.10;2.80;;;;;;;24.38;49.98;101194.51;2262430;75;52332;-77
2023/09/16 05:41:37;;;;;;;18.77;2.67;;;;;;;24.37;49.98;101187.41;2232331;76;52256;-77
2023/09/16 05:44:40;;;;;;;16.15;3.20;;;;;;;24.38;49.94;101195.86;2280358;76;50576;-77
2023/09/16 05:47:44;;;;;;;10.90;3.08;;;;;;;24.39;49.90;101187.22;2281180;77;50320;-78
2023/09/16 05:50:48;;;;;;;11.50;3.08;;;;;;;24.40;49.83;101195.10;2303925;76;22850;-77
2023/09/16 05:53:50;;;;;;;14.38;3.35;;;;;;;24.41;49.75;101192.73;2281481;76;52337;-77
2023/09/16 05:56:52;;;;;;;5.58;2.67;;;;;;;24.44;49.86;101200.42;2285663;76;51323;-78
2023/09/16 05:59:54;;;;;;;9.45;2.83;;;;;;;24.47;49.83;101205.97;2307278;76;51437;-78
2023/09/16 06:02:57;;;;;;;9.88;2.95;;;;;;;24.53;49.73;101212.74;2275095;76;52293;-76
2023/09/16 06:05:59;;;;;;;13.25;3.20;;;;;;;24.58;49.72;101212.09;2314982;76;51339;-76
2023/09/16 06:09:03;;;;;;;14.53;2.75;;;;;;;24.62;49.78;101215.22;2300402;76;50675;-76
2023/09/16 06:12:05;;;;;;;10.65;3.20;;;;;;;24.62;49.84;101212.52;2288486;76;50731;-75
2023/09/16 06:15:09;;;;;;;7.95;2.83;;;;;;;24.65;49.86;101214.80;2303124;76;50518;-78
2023/09/16 06:18:11;;;;;;;8.40;3.25;;;;;;;24.68;49.60;101219.78;2262872;76;50546;-77
2023/09/16 06:21:15;;;;;;;13.62;3.25;;;;;;;24.70;49.69;101225.83;2288395;76;50111;-78
2023/09/16 06:24:17;;;;;;;12.98;3.08;;;;;;;24.73;49.72;101217.28;2303606;76;22361;-77
2023/09/16 06:27:19;;;;;;;9.33;2.67;;;;;;;24.75;49.68;101216.03;2299960;76;50704;-76
2023/09/16 06:30:21;;;;;;;7.40;2.67;;;;;;;24.75;49.51;101214.67;2309321;76;50218;-76
2023/09/16 06:33:23;;;;;;;10.00;2.62;;;;;;;24.81;49.32;101214.88;2266517;76;50211;-76
2023/09/16 06:36:26;;;;;;;14.90;2.98;;;;;;;24.78;49.32;101206.66;2275879;76;50447;-77
2023/09/16 06:39:28;;;;;;;8.40;2.70;;;;;;;24.80;49.40;101211.34;2342252;76;51381;-77
2023/09/16 06:42:30;;;;;;;13.05;3.30;;;;;;;24.84;49.56;101216.66;2322052;76;52357;-77
2023/09/16 06:45:32;;;;;;;14.73;2.80;;;;;;;24.90;49.57;101223.92;2337443;75;50740;-76
2023/09/16 06:48:34;;;;;;;14.53;3.15;;;;;;;24.93;49.54;101223.49;2296933;76;50141;-77
2023/09/16 06:51:37;;;;;;;8.53;2.80;;;;;;;24.96;49.52;101219.00;2322558;76;51712;-77
2023/09/16 06:54:39;;;;;;;15.45;2.65;;;;;;;24.99;49.38;101210.45;2315640;76;50165;-75
2023/09/16 06:57:42;;;;;;;9.03;2.47;;;;;;;24.99;49.47;101209.63;2330168;75;50579;-76
2023/09/16 07:00:45;;;;;;;12.20;2.92;;;;;;;25.01;49.38;101208.08;2243477;77;22324;-78
2023/09/16 07:03:47;;;;;;;25.00;3.45;;;;;;;25.02;49.35;101211.08;2302133;76;50677;-76
2023/09/16 07:06:49;;;;;;;21.90;3.58;;;;;;;25.02;49.20;101207.02;2300861;76;51672;-77
2023/09/16 07:09:56;;;;;;;19.05;3.02;;;;;;;25.02;49.17;101209.72;2341436;76;51478;-76
2023/09/16 07:12:58;;;;;;;17.75;3.45;;;;;;;25.03;49.16;101205.47;2311256;75;50613;-77
2023/09/16 07:16:01;;;;;;;23.35;3.80;;;;;;;25.05;49.15;101202.52;2267196;76;52528;-77
2023/09/16 07:19:03;;;;;;;19.62;4.05;;;;;;;25.02;49.34;101201.08;2290808;76;51327;-76
2023/09/16 07:22:05;;;;;;;18.95;3.33;;;;;;;25.05;49.39;101211.50;2287758;76;50714;-76
2023/09/16 07:25:08;;;;;;;24.52;4.33;;;;;;;25.07;49.49;101204.50;2263692;76;50442;-76
2023/09/16 07:28:10;;;;;;;15.72;3.90;;;;;;;25.07;49.34;101203.15;2267409;76;51538;-76
2023/09/16 07:31:13;;;;;;;18.35;3.90;;;;;;;25.07;49.50;101200.44;2276669;76;50021;-77
2023/09/16 07:34:19;;;;;;;30.48;4.30;;;;;;;25.06;49.57;101201.50;2328195;75;51435;-76
2023/09/16 07:37:21;;;;;;;18.32;3.58;;;;;;;25.07;49.50;101202.63;2311937;75;51487;-75
2023/09/16 07:40:24;;;;;;;27.35;4.37;;;;;;;25.10;49.47;101198.66;2295977;76;50917;-76
2023/09/16 07:43:26;;;;;;;21.12;4.80;;;;;;;25.12;49.46;101193.86;2321740;75;51514;-76
2023/09/16 07:46:28;;;;;;;23.62;3.85;;;;;;;25.13;49.26;101189.60;2338492;75;51522;-75
2023/09/16 07:49:30;;;;;;;24.25;4.67;;;;;;;25.14;49.18;101185.84;2308958;75;51487;-76
2023/09/16 07:52:32;;;;;;;23.02;3.92;;;;;;;25.16;49.09;101179.72;2302343;77;51500;-76
2023/09/16 07:55:35;;;;;;;20.72;4.08;;;;;;;25.18;49.03;101190.35;2295480;75;51063;-76
2023/09/16 07:58:37;;;;;;;18.90;3.37;;;;;;;25.17;48.95;101181.90;2291471;76;50198;-76
2023/09/16 08:01:39;;;;;;;19.45;3.27;;;;;;;25.14;48.95;101185.84;2293519;76;50336;-76
2023/09/16 08:04:41;;;;;;;16.05;3.80;;;;;;;25.17;48.92;101180.02;2289505;76;51458;-76
2023/09/16 08:07:44;;;;;;;23.92;4.12;;;;;;;25.17;48.87;101192.20;2287206;76;50638;-77
2023/09/16 08:10:50;;;;;;;20.72;4.22;;;;;;;25.14;48.89;101185.84;2315878;76;51401;-75
2023/09/16 08:13:52;;;;;;;20.05;3.55;;;;;;;25.16;49.23;101182.95;2324267;76;50244;-76
2023/09/16 08:16:57;;;;;;;21.57;3.85;;;;;;;25.11;49.16;101188.16;2328781;75;52364;-77
2023/09/16 08:19:58;;;;;;;16.97;4.10;;;;;;;25.10;49.32;101191.39;2305052;76;23021;-76
2023/09/16 08:23:01;;;;;;;18.15;4.05;;;;;;;25.12;49.30;101191.16;2304265;76;51367;-76
2023/09/16 08:26:03;;;;;;;19.82;4.28;;;;;;;25.13;49.26;101180.65;2311766;76;51379;-77
2023/09/16 08:29:05;;;;;;;18.42;4.17;;;;;;;25.12;49.27;101185.73;2291797;75;52623;-76
2023/09/16 08:32:07;;;;;;;20.95;4.03;;;;;;;25.13;49.23;101193.66;2244532;77;51410;-77
2023/09/16 08:35:10;;;;;;;32.28;4.35;;;;;;;25.12;49.58;101184.39;2222979;77;50169;-76
2023/09/16 08:38:12;;;;;;;17.85;4.05;;;;;;;25.11;49.54;101173.26;2238426;76;51407;-77
2023/09/16 08:41:29;;;;;;;21.35;3.83;;;;;;;25.09;49.61;101178.88;2322610;76;50330;-76
2023/09/16 08:44:31;;;;;;;23.27;4.03;;;;;;;25.10;49.58;101172.93;2301592;75;50842;-76
2023/09/16 08:47:36;;;;;;;14.80;3.83;;;;;;;25.08;49.70;101177.75;2338255;76;50136;-75
2023/09/16 08:50:38;;;;;;;14.78;4.20;;;;;;;25.05;49.53;101170.89;2335260;76;51543;-77
2023/09/16 08:53:41;;;;;;;19.75;4.20;;;;;;;25.02;48.66;101167.76;2292879;76;52385;-76
2023/09/16 08:56:44;;;;;;;18.27;4.50;;;;;;;24.97;48.94;101182.78;2308571;76;51369;-76
2023/09/16 08:59:46;;;;;;;18.25;4.33;;;;;;;24.95;48.82;101178.09;2333373;75;51424;-76
2023/09/16 09:02:49;;;;;;;14.95;3.90;;;;;;;24.92;48.99;101170.41;2301065;76;51463;-77
2023/09/16 09:05:52;;;;;;;18.17;4.30;;;;;;;24.94;48.93;101170.17;2298726;77;51568;-77
2023/09/16 09:08:55;;;;;;;20.92;4.10;;;;;;;24.89;49.02;101169.98;2298759;77;51542;-75
2023/09/16 09:11:57;;;;;;;18.10;4.60;;;;;;;24.87;49.03;101159.91;2285911;76;51385;-76
2023/09/16 09:15:00;;;;;;;25.48;4.70;;;;;;;24.87;49.14;101159.91;2338031;76;51518;-75
2023/09/16 09:18:03;;;;;;;22.30;4.95;;;;;;;24.86;49.15;101152.29;2280667;76;51698;-76
2023/09/16 09:21:05;;;;;;;22.40;4.42;;;;;;;24.87;49.07;101153.15;2338367;76;50212;-76
2023/09/16 09:24:07;;;;;;;14.93;4.20;;;;;;;24.83;49.14;101152.72;2337995;76;50610;-75
2023/09/16 09:27:10;;;;;;;24.18;4.78;;;;;;;24.85;49.12;101154.70;2281062;76;51462;-75
2023/09/16 09:30:12;;;;;;;19.75;4.55;;;;;;;24.82;49.16;101155.13;2318214;76;51568;-76
2023/09/16 09:33:15;;;;;;;14.83;4.20;;;;;;;24.81;49.14;101150.74;2247195;76;51098;-75
2023/09/16 09:36:18;;;;;;;18.67;4.42;;;;;;;24.82;49.13;101144.30;2297545;76;51545;-76
2023/09/16 09:39:20;;;;;;;21.60;4.40;;;;;;;24.81;49.15;101146.68;2297711;76;51557;-76
2023/09/16 09:42:23;;;;;;;19.42;4.60;;;;;;;24.81;49.19;101139.91;2270556;76;52371;-76
2023/09/16 09:45:25;;;;;;;16.12;4.47;;;;;;;24.80;49.20;101142.33;2330975;76;50662;-76
2023/09/16 09:48:28;;;;;;;14.75;4.00;;;;;;;24.77;49.25;101130.05;2297517;76;50761;-76
2023/09/16 09:51:30;;;;;;;22.50;5.08;;;;;;;24.77;49.23;101130.58;2272556;76;51500;-76
2023/09/16 09:54:32;;;;;;;15.05;4.25;;;;;;;24.76;49.24;101135.66;2330822;76;50580;-75
2023/09/16 09:57:34;;;;;;;10.95;3.95;;;;;;;24.76;49.25;101128.90;2331341;76;51390;-78
2023/09/16 10:00:37;;;;;;;18.62;4.03;;;;;;;24.74;49.22;101123.72;2309702;76;51345;-75
2023/09/16 10:03:39;;;;;;;17.62;4.25;;;;;;;24.74;49.24;101125.06;2293611;77;51379;-77
2023/09/16 10:06:41;;;;;;;16.23;4.62;;;;;;;24.74;49.26;101124.24;2236641;77;52283;-74
2023/09/16 10:09:44;;;;;;;20.60;4.00;;;;;;;24.73;49.25;101108.50;2293887;76;50047;-76
2023/09/16 10:12:46;;;;;;;21.85;4.10;;;;;;;24.72;49.26;101116.85;2247858;77;51490;-76
2023/09/16 10:15:49;;;;;;;14.75;4.00;;;;;;;24.72;49.26;101112.80;2272501;77;51388;-76
2023/09/16 10:18:51;;;;;;;12.78;4.20;;;;;;;24.70;49.28;101111.64;2272385;77;51439;-74
2023/09/16 10:21:53;;;;;;;22.30;4.10;;;;;;;24.70;49.31;101110.29;2236465;76;51052;-75
2023/09/16 10:24:55;;;;;;;15.98;3.98;;;;;;;24.71;49.27;101111.11;2293724;77;51482;-76
2023/09/16 10:28:06;;;;;;;14.03;4.15;;;;;;;24.72;49.24;101103.32;2304859;76;50291;-75
2023/09/16 10:31:08;;;;;;;12.33;3.98;;;;;;;24.72;49.22;101094.67;2260472;76;51693;-75
2023/09/16 10:34:11;;;;;;;12.68;3.90;;;;;;;24.71;49.23;101094.37;2340983;75;51412;-75
2023/09/16 10:37:14;;;;;;;11.97;3.30;;;;;;;24.70;49.23;101086.45;2341722;76;50803;-76
2023/09/16 10:40:17;;;;;;;8.05;3.20;;;;;;;24.70;49.24;101083.75;2341779;76;51501;-76
2023/09/16 10:43:19;;;;;;;9.35;3.60;;;;;;;24.69;49.24;101083.45;2341513;76;51508;-75
2023/09/16 10:46:22;;;;;;;12.73;3.95;;;;;;;24.68;49.22;101078.54;2341635;76;51597;-75
2023/09/16 10:49:24;;;;;;;13.22;3.70;;;;;;;24.67;49.23;101078.25;2294613;76;50549;-75
2023/09/16 10:52:38;;;;;;;19.45;4.25;;;;;;;24.67;49.25;101063.89;2341469;76;51526;-75
2023/09/16 10:55:50;;;;;;;13.32;3.83;;;;;;;24.66;49.28;101064.92;2320283;76;52417;-75
2023/09/16 10:58:55;;;;;;;13.80;3.83;;;;;;;24.64;49.29;101073.27;2315507;76;50794;-75
2023/09/16 11:02:00;;;;;;;9.58;3.40;;;;;;;24.64;49.30;101065.67;2301159;76;50236;-75
2023/09/16 11:05:02;;;;;;;9.65;3.72;;;;;;;24.63;49.33;101062.64;2283334;77;51525;-75
2023/09/16 11:08:04;;;;;;;13.95;3.72;;;;;;;24.63;49.33;101064.00;2302348;77;51392;-75
2023/09/16 11:11:07;;;;;;;9.80;3.27;;;;;;;24.62;49.33;101061.00;2282967;77;52452;-75
2023/09/16 11:14:09;;;;;;;12.05;3.67;;;;;;;24.61;49.31;101064.72;2302083;77;51514;-74
2023/09/16 11:17:18;;;;;;;9.15;3.90;;;;;;;24.61;49.32;101063.38;2302357;77;50651;-76
2023/09/16 11:20:30;;;;;;;12.43;4.27;;;;;;;24.61;49.30;101056.11;2301699;77;22361;-75
2023/09/16 11:23:27;;;;;;;9.98;4.28;;;;;;;24.61;49.29;101056.11;2301099;76;23289;-75
2023/09/16 11:26:32;;;;;;;7.78;3.50;;;;;;;24.61;49.31;101045.29;2298002;76;51549;-75
2023/09/16 11:29:34;;;;;;;9.55;4.03;;;;;;;24.60;49.30;101042.26;2331062;75;51359;-76
2023/09/16 11:32:38;;;;;;;9.08;3.27;;;;;;;24.61;49.29;101044.44;2335947;75;50083;-76
2023/09/16 11:35:40;;;;;;;7.62;3.25;;;;;;;24.62;49.29;101046.11;2269690;76;52291;-76
2023/09/16 11:39:10;;;;;;;9.45;3.70;;;;;;;24.59;49.29;101031.14;2294319;76;51407;-75
2023/09/16 11:42:13;;;;;;;10.28;3.70;;;;;;;24.62;49.28;101025.82;2318125;76;50657;-77
2023/09/16 11:45:17;;;;;;;8.48;3.70;;;;;;;24.60;49.31;101015.20;2280328;75;51198;-75
2023/09/16 11:48:19;;;;;;;7.30;3.62;;;;;;;24.59;49.31;101017.61;2294486;76;50581;-75
2023/09/16 11:51:22;;;;;;;11.55;3.52;;;;;;;24.59;49.35;101013.55;2268822;76;50174;-75
2023/09/16 11:54:24;;;;;;;11.38;3.42;;;;;;;24.59;49.34;101012.73;2268963;75;52353;-76
2023/09/16 11:57:26;;;;;;;7.65;3.20;;;;;;;24.60;49.31;101014.38;2309772;76;51375;-76
2023/09/16 12:00:29;;;;;;;9.30;3.42;;;;;;;24.60;49.31;101013.84;2267847;77;51674;-76
2023/09/16 12:03:31;;;;;;;9.13;3.40;;;;;;;24.59;49.35;101000.02;2267757;78;52023;-75
2023/09/16 12:06:35;;;;;;;6.40;3.58;;;;;;;24.60;49.32;100994.91;2279835;76;50565;-75
2023/09/16 12:09:37;;;;;;;7.05;3.17;;;;;;;24.60;49.31;100989.50;2231081;78;52392;-75
2023/09/16 12:12:39;;;;;;;9.18;3.40;;;;;;;24.61;49.30;100986.26;2278891;76;50380;-75
2023/09/16 12:15:42;;;;;;;10.30;3.62;;;;;;;24.61;49.55;100982.20;2293725;76;50701;-76
2023/09/16 12:18:44;;;;;;;9.05;3.62;;;;;;;24.61;49.58;100982.20;2314373;75;52163;-76
2023/09/16 12:21:47;;;;;;;12.15;3.90;;;;;;;24.62;49.56;100981.17;2310896;76;50718;-76
2023/09/16 12:24:54;;;;;;;11.93;3.80;;;;;;;24.63;49.67;100977.41;2259523;77;52343;-76
2023/09/16 12:27:56;;;;;;;12.80;4.10;;;;;;;24.64;49.58;100974.50;2291927;76;50358;-75
2023/09/16 12:30:59;;;;;;;13.88;4.12;;;;;;;24.65;49.69;100965.86;2306250;76;50666;-74
2023/09/16 12:34:01;;;;;;;11.78;3.80;;;;;;;24.64;49.78;100972.33;2229962;76;49575;-75
2023/09/16 12:37:03;;;;;;;13.03;3.47;;;;;;;24.63;50.00;100972.00;2286589;76;50244;-76
2023/09/16 12:40:07;;;;;;;8.75;3.50;;;;;;;24.65;49.89;100975.33;2318998;76;50388;-75
2023/09/16 12:43:09;;;;;;;8.33;3.40;;;;;;;24.65;49.95;100970.73;2294466;76;51506;-74
2023/09/16 12:46:12;;;;;;;16.73;3.72;;;;;;;24.64;50.03;100964.21;2313287;76;52421;-76
2023/09/16 12:49:14;;;;;;;19.02;3.95;;;;;;;24.66;50.05;100962.09;2311513;76;50110;-75
2023/09/16 12:52:16;;;;;;;15.20;3.92;;;;;;;24.66;50.03;100959.39;2333308;76;51445;-76
2023/09/16 12:55:19;;;;;;;17.98;4.03;;;;;;;24.65;50.15;100956.38;2333576;75;50649;-75
2023/09/16 12:58:24;;;;;;;14.10;4.05;;;;;;;24.66;50.13;100957.53;2311610;76;52481;-76
2023/09/16 13:01:28;;;;;;;14.60;4.35;;;;;;;24.66;50.12;100952.63;2311372;76;50247;-76
2023/09/16 13:04:30;;;;;;;14.95;3.92;;;;;;;24.66;50.24;100949.91;2307687;76;51535;-75
2023/09/16 13:07:32;;;;;;;18.30;3.95;;;;;;;24.67;50.09;100946.19;2299848;76;51565;-75
2023/09/16 13:10:35;;;;;;;11.97;3.95;;;;;;;24.66;50.10;100938.59;2316072;76;51356;-75
2023/09/16 13:13:37;;;;;;;16.20;4.37;;;;;;;24.69;50.35;100941.39;2331267;76;50391;-75
2023/09/16 13:16:40;;;;;;;27.37;4.50;;;;;;;24.69;50.27;100944.92;2312731;76;50262;-76
2023/09/16 13:19:43;;;;;;;18.37;4.08;;;;;;;24.71;50.35;100941.48;2278370;76;51477;-76
2023/09/16 13:22:46;;;;;;;28.27;4.97;;;;;;;24.72;50.50;100938.25;2299326;76;50198;-75
2023/09/16 13:25:48;;;;;;;31.82;5.17;;;;;;;24.74;50.52;100933.45;2304084;76;50410;-75
2023/09/16 13:28:55;;;;;;;20.77;5.28;;;;;;;24.76;50.40;100931.33;2292698;76;50158;-75
2023/09/16 13:32:02;;;;;;;28.65;5.55;;;;;;;24.80;50.44;100929.86;2270858;76;50464;-75
2023/09/16 13:35:05;;;;;;;30.57;5.20;;;;;;;24.81;50.41;100923.39;2288974;76;51423;-75
2023/09/16 13:38:11;;;;;;;32.88;6.40;;;;;;;24.81;50.58;100922.03;2250107;76;52379;-73
2023/09/16 13:41:13;;;;;;;30.90;5.45;;;;;;;24.84;50.59;100916.22;2301121;76;50402;-73
2023/09/16 13:44:16;;;;;;;36.23;5.75;;;;;;;24.85;50.52;100916.50;2290699;76;50192;-73
2023/09/16 13:47:18;;;;;;;44.73;6.67;;;;;;;24.83;50.58;100914.53;2276698;76;51008;-73
2023/09/16 13:50:20;;;;;;;40.28;6.70;;;;;;;24.85;50.59;100907.56;2266645;76;50326;-73
2023/09/16 13:53:25;;;;;;;32.35;5.40;;;;;;;24.86;50.54;100903.27;2303836;76;50231;-73
2023/09/16 13:56:27;;;;;;;32.55;5.53;;;;;;;24.88;50.39;100903.88;2306387;76;52350;-74
2023/09/16 13:59:29;;;;;;;28.52;6.17;;;;;;;24.87;50.31;100904.94;2309031;76;50324;-74
2023/09/16 14:02:31;;;;;;;18.35;5.20;;;;;;;24.88;50.26;100889.00;2300582;76;50292;-73
2023/09/16 14:05:35;;;;;;;18.40;5.03;;;;;;;24.89;50.24;100891.17;2274610;76;50882;-73